sensor_id;sensor_type;location;lat;lon;timestamp;temperature;humidity
8408;DHT22;4241;48.452;9.216;2022-11-21T00:00:21;4.70;99.90
8408;DHT22;4241;48.452;9.216;2022-11-21T00:02:48;4.70;99.90
8408;DHT22;4241;48.452;9.216;2022-11-21T00:05:17;4.80;99.90
8408;DHT22;4241;48.452;9.216;2022-11-21T00:10:11;4.80;99.90
8408;DHT22;4241;48.452;9.216;2022-11-21T00:12:38;4.80;99.90
8408;DHT22;4241;48.452;9.216;2022-11-21T00:15:05;4.80;99.90
8408;DHT22;4241;48.452;9.216;2022-11-21T00:17:35;4.80;99.90
8408;DHT22;4241;48.452;9.216;2022-11-21T00:20:03;4.80;99.90
8408;DHT22;4241;48.452;9.216;2022-11-21T00:22:31;4.80;99.90
8408;DHT22;4241;48.452;9.216;2022-11-21T00:24:58;4.70;99.90
8408;DHT22;4241;48.452;9.216;2022-11-21T00:27:25;5.00;99.90
8408;DHT22;4241;48.452;9.216;2022-11-21T00:32:18;4.80;99.90
8408;DHT22;4241;48.452;9.216;2022-11-21T00:34:45;5.00;99.90
8408;DHT22;4241;48.452;9.216;2022-11-21T00:39:40;4.90;99.90
8408;DHT22;4241;48.452;9.216;2022-11-21T00:42:07;4.90;99.90
8408;DHT22;4241;48.452;9.216;2022-11-21T00:44:34;4.70;99.90
8408;DHT22;4241;48.452;9.216;2022-11-21T00:47:01;4.70;99.90
8408;DHT22;4241;48.452;9.216;2022-11-21T00:49:28;4.70;99.90
8408;DHT22;4241;48.452;9.216;2022-11-21T00:51:54;4.80;99.90
8408;DHT22;4241;48.452;9.216;2022-11-21T00:54:21;4.80;99.90
8408;DHT22;4241;48.452;9.216;2022-11-21T00:56:50;4.70;99.90
8408;DHT22;4241;48.452;9.216;2022-11-21T01:01:44;4.80;99.90
8408;DHT22;4241;48.452;9.216;2022-11-21T01:04:10;4.70;99.90
8408;DHT22;4241;48.452;9.216;2022-11-21T01:06:37;4.70;99.90
8408;DHT22;4241;48.452;9.216;2022-11-21T01:09:04;4.80;99.90
8408;DHT22;4241;48.452;9.216;2022-11-21T01:11:31;4.80;99.90
8408;DHT22;4241;48.452;9.216;2022-11-21T01:13:59;4.80;99.90
8408;DHT22;4241;48.452;9.216;2022-11-21T01:16:27;4.80;99.90
8408;DHT22;4241;48.452;9.216;2022-11-21T01:18:55;4.90;99.90
8408;DHT22;4241;48.452;9.216;2022-11-21T01:21:24;4.90;99.90
8408;DHT22;4241;48.452;9.216;2022-11-21T01:23:52;4.90;99.90
8408;DHT22;4241;48.452;9.216;2022-11-21T01:26:20;5.00;99.90
8408;DHT22;4241;48.452;9.216;2022-11-21T01:28:47;5.10;99.90
8408;DHT22;4241;48.452;9.216;2022-11-21T01:31:16;5.10;99.90
8408;DHT22;4241;48.452;9.216;2022-11-21T01:33:44;5.20;99.90
8408;DHT22;4241;48.452;9.216;2022-11-21T01:36:12;5.20;99.90
8408;DHT22;4241;48.452;9.216;2022-11-21T01:38:40;5.30;99.90
8408;DHT22;4241;48.452;9.216;2022-11-21T01:41:08;5.30;99.90
8408;DHT22;4241;48.452;9.216;2022-11-21T01:46:07;5.20;99.90
8408;DHT22;4241;48.452;9.216;2022-11-21T01:48:41;5.30;99.90
8408;DHT22;4241;48.452;9.216;2022-11-21T01:51:13;5.30;99.90
8408;DHT22;4241;48.452;9.216;2022-11-21T01:53:45;5.20;99.90
8408;DHT22;4241;48.452;9.216;2022-11-21T01:56:15;5.30;99.90
8408;DHT22;4241;48.452;9.216;2022-11-21T01:58:42;5.20;99.90
8408;DHT22;4241;48.452;9.216;2022-11-21T02:03:40;5.20;99.90
8408;DHT22;4241;48.452;9.216;2022-11-21T02:06:08;5.10;99.90
8408;DHT22;4241;48.452;9.216;2022-11-21T02:08:36;5.20;99.90
8408;DHT22;4241;48.452;9.216;2022-11-21T02:11:10;5.70;99.90
8408;DHT22;4241;48.452;9.216;2022-11-21T02:16:05;5.10;99.90
8408;DHT22;4241;48.452;9.216;2022-11-21T02:21:05;4.90;99.90
8408;DHT22;4241;48.452;9.216;2022-11-21T02:23:40;5.10;99.90
8408;DHT22;4241;48.452;9.216;2022-11-21T02:26:12;5.10;99.90
8408;DHT22;4241;48.452;9.216;2022-11-21T02:28:40;5.00;99.90
8408;DHT22;4241;48.452;9.216;2022-11-21T02:31:06;4.90;99.90
8408;DHT22;4241;48.452;9.216;2022-11-21T02:33:34;5.00;99.90
8408;DHT22;4241;48.452;9.216;2022-11-21T02:36:01;4.90;99.90
8408;DHT22;4241;48.452;9.216;2022-11-21T02:38:30;5.00;99.90
8408;DHT22;4241;48.452;9.216;2022-11-21T02:41:03;5.00;99.90
8408;DHT22;4241;48.452;9.216;2022-11-21T02:43:36;5.10;99.90
8408;DHT22;4241;48.452;9.216;2022-11-21T02:46:05;5.20;99.90
8408;DHT22;4241;48.452;9.216;2022-11-21T02:50:59;5.10;99.90
8408;DHT22;4241;48.452;9.216;2022-11-21T02:53:26;5.00;99.90
8408;DHT22;4241;48.452;9.216;2022-11-21T02:58:20;4.90;99.90
8408;DHT22;4241;48.452;9.216;2022-11-21T03:00:48;4.80;99.90
8408;DHT22;4241;48.452;9.216;2022-11-21T03:10:36;4.50;99.90
8408;DHT22;4241;48.452;9.216;2022-11-21T03:15:31;4.60;99.90
8408;DHT22;4241;48.452;9.216;2022-11-21T03:18:00;4.60;99.90
8408;DHT22;4241;48.452;9.216;2022-11-21T03:20:28;4.60;99.90
8408;DHT22;4241;48.452;9.216;2022-11-21T03:22:54;4.60;99.90
8408;DHT22;4241;48.452;9.216;2022-11-21T03:25:21;4.70;99.90
8408;DHT22;4241;48.452;9.216;2022-11-21T03:27:50;4.70;99.90
8408;DHT22;4241;48.452;9.216;2022-11-21T03:32:44;4.70;99.90
8408;DHT22;4241;48.452;9.216;2022-11-21T03:35:12;4.90;99.90
8408;DHT22;4241;48.452;9.216;2022-11-21T03:37:39;5.00;99.90
8408;DHT22;4241;48.452;9.216;2022-11-21T03:40:07;4.90;99.90
8408;DHT22;4241;48.452;9.216;2022-11-21T03:42:35;4.90;99.90
8408;DHT22;4241;48.452;9.216;2022-11-21T03:47:29;5.00;99.90
8408;DHT22;4241;48.452;9.216;2022-11-21T03:49:56;5.20;99.90
8408;DHT22;4241;48.452;9.216;2022-11-21T03:52:24;5.00;99.90
8408;DHT22;4241;48.452;9.216;2022-11-21T03:57:18;5.00;99.90
8408;DHT22;4241;48.452;9.216;2022-11-21T03:59:45;5.10;99.90
8408;DHT22;4241;48.452;9.216;2022-11-21T04:02:11;5.10;99.90
8408;DHT22;4241;48.452;9.216;2022-11-21T04:04:38;5.10;99.90
8408;DHT22;4241;48.452;9.216;2022-11-21T04:07:05;5.00;99.90
8408;DHT22;4241;48.452;9.216;2022-11-21T04:09:33;5.00;99.90
8408;DHT22;4241;48.452;9.216;2022-11-21T04:12:00;5.00;99.90
8408;DHT22;4241;48.452;9.216;2022-11-21T04:14:26;4.80;99.90
8408;DHT22;4241;48.452;9.216;2022-11-21T04:24:15;4.80;99.90
8408;DHT22;4241;48.452;9.216;2022-11-21T04:26:43;4.70;99.90
8408;DHT22;4241;48.452;9.216;2022-11-21T04:29:12;4.70;99.90
8408;DHT22;4241;48.452;9.216;2022-11-21T04:31:39;4.60;99.90
8408;DHT22;4241;48.452;9.216;2022-11-21T04:43:56;4.60;99.90
8408;DHT22;4241;48.452;9.216;2022-11-21T04:48:50;4.50;99.90
8408;DHT22;4241;48.452;9.216;2022-11-21T04:51:16;4.50;99.90
8408;DHT22;4241;48.452;9.216;2022-11-21T04:53:43;4.40;99.90
8408;DHT22;4241;48.452;9.216;2022-11-21T04:56:10;4.50;99.90
8408;DHT22;4241;48.452;9.216;2022-11-21T04:58:40;4.40;99.90
8408;DHT22;4241;48.452;9.216;2022-11-21T05:01:09;4.50;99.90
8408;DHT22;4241;48.452;9.216;2022-11-21T05:03:36;4.40;99.90
8408;DHT22;4241;48.452;9.216;2022-11-21T05:08:30;4.30;99.90
8408;DHT22;4241;48.452;9.216;2022-11-21T05:10:56;4.40;99.90
8408;DHT22;4241;48.452;9.216;2022-11-21T05:13:41;4.40;99.90
8408;DHT22;4241;48.452;9.216;2022-11-21T05:16:09;4.30;99.90
8408;DHT22;4241;48.452;9.216;2022-11-21T05:21:03;4.50;99.90
8408;DHT22;4241;48.452;9.216;2022-11-21T05:25:58;4.50;99.90
8408;DHT22;4241;48.452;9.216;2022-11-21T05:28:26;4.50;99.90
8408;DHT22;4241;48.452;9.216;2022-11-21T05:33:21;4.50;99.90
8408;DHT22;4241;48.452;9.216;2022-11-21T05:35:48;4.60;99.90
8408;DHT22;4241;48.452;9.216;2022-11-21T05:40:41;4.60;99.90
8408;DHT22;4241;48.452;9.216;2022-11-21T05:43:09;4.50;99.90
8408;DHT22;4241;48.452;9.216;2022-11-21T05:45:54;4.50;99.90
8408;DHT22;4241;48.452;9.216;2022-11-21T05:48:22;4.50;99.90
8408;DHT22;4241;48.452;9.216;2022-11-21T05:53:16;4.50;99.90
8408;DHT22;4241;48.452;9.216;2022-11-21T05:55:44;4.50;99.90
8408;DHT22;4241;48.452;9.216;2022-11-21T05:58:11;4.50;99.90
8408;DHT22;4241;48.452;9.216;2022-11-21T06:00:38;4.50;99.90
8408;DHT22;4241;48.452;9.216;2022-11-21T06:03:05;4.60;99.90
8408;DHT22;4241;48.452;9.216;2022-11-21T06:05:51;4.60;99.90
8408;DHT22;4241;48.452;9.216;2022-11-21T06:08:18;4.50;99.90
8408;DHT22;4241;48.452;9.216;2022-11-21T06:15:57;4.60;99.90
8408;DHT22;4241;48.452;9.216;2022-11-21T06:18:24;4.70;99.90
8408;DHT22;4241;48.452;9.216;2022-11-21T06:20:53;4.80;99.90
8408;DHT22;4241;48.452;9.216;2022-11-21T06:23:19;4.50;99.90
8408;DHT22;4241;48.452;9.216;2022-11-21T06:25:46;4.80;99.90
8408;DHT22;4241;48.452;9.216;2022-11-21T06:28:13;4.80;99.90
8408;DHT22;4241;48.452;9.216;2022-11-21T06:30:40;4.80;99.90
8408;DHT22;4241;48.452;9.216;2022-11-21T06:33:07;4.90;99.90
8408;DHT22;4241;48.452;9.216;2022-11-21T06:35:36;4.80;99.90
8408;DHT22;4241;48.452;9.216;2022-11-21T06:38:05;4.90;99.90
8408;DHT22;4241;48.452;9.216;2022-11-21T06:40:32;4.90;99.90
8408;DHT22;4241;48.452;9.216;2022-11-21T06:45:26;5.00;99.90
8408;DHT22;4241;48.452;9.216;2022-11-21T06:47:53;5.00;99.90
8408;DHT22;4241;48.452;9.216;2022-11-21T06:50:20;5.10;99.90
8408;DHT22;4241;48.452;9.216;2022-11-21T06:55:16;5.20;99.90
8408;DHT22;4241;48.452;9.216;2022-11-21T07:00:10;5.20;99.90
8408;DHT22;4241;48.452;9.216;2022-11-21T07:05:05;5.30;99.90
8408;DHT22;4241;48.452;9.216;2022-11-21T07:07:32;5.40;99.90
8408;DHT22;4241;48.452;9.216;2022-11-21T07:09:59;5.20;99.90
8408;DHT22;4241;48.452;9.216;2022-11-21T07:12:27;5.50;99.90
8408;DHT22;4241;48.452;9.216;2022-11-21T07:15:11;5.40;99.90
8408;DHT22;4241;48.452;9.216;2022-11-21T07:20:06;5.30;99.90
8408;DHT22;4241;48.452;9.216;2022-11-21T07:22:33;5.30;99.90
8408;DHT22;4241;48.452;9.216;2022-11-21T07:25:00;5.40;99.90
8408;DHT22;4241;48.452;9.216;2022-11-21T07:27:28;5.40;99.90
8408;DHT22;4241;48.452;9.216;2022-11-21T07:29:55;5.40;99.90
8408;DHT22;4241;48.452;9.216;2022-11-21T07:32:23;5.30;99.90
8408;DHT22;4241;48.452;9.216;2022-11-21T07:34:50;5.50;99.90
8408;DHT22;4241;48.452;9.216;2022-11-21T07:39:44;5.60;99.90
8408;DHT22;4241;48.452;9.216;2022-11-21T07:44:39;5.70;99.90
8408;DHT22;4241;48.452;9.216;2022-11-21T07:47:06;5.70;99.90
8408;DHT22;4241;48.452;9.216;2022-11-21T07:49:33;5.80;99.90
8408;DHT22;4241;48.452;9.216;2022-11-21T07:51:59;5.80;99.90
8408;DHT22;4241;48.452;9.216;2022-11-21T07:54:26;5.70;99.90
8408;DHT22;4241;48.452;9.216;2022-11-21T07:56:53;5.80;99.90
8408;DHT22;4241;48.452;9.216;2022-11-21T07:59:20;5.80;99.90
8408;DHT22;4241;48.452;9.216;2022-11-21T08:01:49;5.80;99.90
8408;DHT22;4241;48.452;9.216;2022-11-21T08:04:16;5.80;99.90
8408;DHT22;4241;48.452;9.216;2022-11-21T08:06:43;5.70;99.90
8408;DHT22;4241;48.452;9.216;2022-11-21T08:19:00;5.70;99.90
8408;DHT22;4241;48.452;9.216;2022-11-21T08:21:31;5.60;99.90
8408;DHT22;4241;48.452;9.216;2022-11-21T08:26:25;5.70;99.90
8408;DHT22;4241;48.452;9.216;2022-11-21T08:28:51;5.70;99.90
8408;DHT22;4241;48.452;9.216;2022-11-21T08:33:45;5.70;99.90
8408;DHT22;4241;48.452;9.216;2022-11-21T08:36:13;5.90;99.90
8408;DHT22;4241;48.452;9.216;2022-11-21T08:38:40;5.70;99.90
8408;DHT22;4241;48.452;9.216;2022-11-21T08:41:07;5.80;99.90
8408;DHT22;4241;48.452;9.216;2022-11-21T08:43:54;5.90;99.90
8408;DHT22;4241;48.452;9.216;2022-11-21T08:46:20;5.90;99.90
8408;DHT22;4241;48.452;9.216;2022-11-21T08:51:20;5.90;99.90
8408;DHT22;4241;48.452;9.216;2022-11-21T08:53:47;5.90;99.90
8408;DHT22;4241;48.452;9.216;2022-11-21T08:56:14;5.90;99.90
8408;DHT22;4241;48.452;9.216;2022-11-21T09:03:35;5.90;99.90
8408;DHT22;4241;48.452;9.216;2022-11-21T09:08:30;5.80;99.90
8408;DHT22;4241;48.452;9.216;2022-11-21T09:10:57;5.90;99.90
8408;DHT22;4241;48.452;9.216;2022-11-21T09:15:51;5.90;99.90
8408;DHT22;4241;48.452;9.216;2022-11-21T09:18:36;5.90;99.90
8408;DHT22;4241;48.452;9.216;2022-11-21T09:23:31;5.90;99.90
8408;DHT22;4241;48.452;9.216;2022-11-21T09:25:58;6.00;99.90
8408;DHT22;4241;48.452;9.216;2022-11-21T09:28:27;6.00;99.90
8408;DHT22;4241;48.452;9.216;2022-11-21T09:35:48;6.30;99.90
8408;DHT22;4241;48.452;9.216;2022-11-21T09:40:45;6.50;99.90
8408;DHT22;4241;48.452;9.216;2022-11-21T09:43:25;6.60;99.90
8408;DHT22;4241;48.452;9.216;2022-11-21T09:45:57;6.70;99.90
8408;DHT22;4241;48.452;9.216;2022-11-21T09:48:29;6.80;99.90
8408;DHT22;4241;48.452;9.216;2022-11-21T09:51:00;6.80;99.90
8408;DHT22;4241;48.452;9.216;2022-11-21T09:53:32;6.90;99.90
8408;DHT22;4241;48.452;9.216;2022-11-21T09:56:05;7.20;99.90
8408;DHT22;4241;48.452;9.216;2022-11-21T09:58:37;7.10;99.90
8408;DHT22;4241;48.452;9.216;2022-11-21T10:01:08;7.30;99.90
8408;DHT22;4241;48.452;9.216;2022-11-21T10:03:40;7.30;99.90
8408;DHT22;4241;48.452;9.216;2022-11-21T10:06:13;7.40;99.90
8408;DHT22;4241;48.452;9.216;2022-11-21T10:08:52;7.50;99.90
8408;DHT22;4241;48.452;9.216;2022-11-21T10:11:30;7.70;99.90
8408;DHT22;4241;48.452;9.216;2022-11-21T10:14:07;7.80;99.90
8408;DHT22;4241;48.452;9.216;2022-11-21T10:16:41;7.90;99.90
8408;DHT22;4241;48.452;9.216;2022-11-21T10:19:34;8.00;99.90
8408;DHT22;4241;48.452;9.216;2022-11-21T10:24:58;8.20;99.90
8408;DHT22;4241;48.452;9.216;2022-11-21T10:27:33;8.30;99.90
8408;DHT22;4241;48.452;9.216;2022-11-21T10:30:03;8.50;99.90
8408;DHT22;4241;48.452;9.216;2022-11-21T10:32:36;8.50;99.90
8408;DHT22;4241;48.452;9.216;2022-11-21T10:35:13;8.40;99.90
8408;DHT22;4241;48.452;9.216;2022-11-21T10:37:44;8.60;99.90
8408;DHT22;4241;48.452;9.216;2022-11-21T10:40:21;8.50;99.90
8408;DHT22;4241;48.452;9.216;2022-11-21T10:42:55;8.60;99.90
8408;DHT22;4241;48.452;9.216;2022-11-21T10:45:23;8.60;99.90
8408;DHT22;4241;48.452;9.216;2022-11-21T10:47:50;8.90;99.90
8408;DHT22;4241;48.452;9.216;2022-11-21T10:50:40;9.00;99.90
8408;DHT22;4241;48.452;9.216;2022-11-21T10:53:16;8.70;99.90
8408;DHT22;4241;48.452;9.216;2022-11-21T10:56:02;8.60;99.90
8408;DHT22;4241;48.452;9.216;2022-11-21T10:58:36;8.50;99.90
8408;DHT22;4241;48.452;9.216;2022-11-21T11:05:59;8.30;99.90
8408;DHT22;4241;48.452;9.216;2022-11-21T11:08:26;8.30;99.90
8408;DHT22;4241;48.452;9.216;2022-11-21T11:11:05;8.10;99.90
8408;DHT22;4241;48.452;9.216;2022-11-21T11:13:52;8.10;99.90
8408;DHT22;4241;48.452;9.216;2022-11-21T11:16:21;8.10;99.90
8408;DHT22;4241;48.452;9.216;2022-11-21T11:18:54;8.20;99.90
8408;DHT22;4241;48.452;9.216;2022-11-21T11:21:24;8.40;99.90
8408;DHT22;4241;48.452;9.216;2022-11-21T11:23:52;8.50;99.90
8408;DHT22;4241;48.452;9.216;2022-11-21T11:26:22;8.40;99.90
8408;DHT22;4241;48.452;9.216;2022-11-21T11:28:50;8.40;99.90
8408;DHT22;4241;48.452;9.216;2022-11-21T11:33:52;8.50;99.90
8408;DHT22;4241;48.452;9.216;2022-11-21T11:36:33;8.60;99.90
8408;DHT22;4241;48.452;9.216;2022-11-21T11:39:15;8.70;99.90
8408;DHT22;4241;48.452;9.216;2022-11-21T11:45:06;8.70;99.90
8408;DHT22;4241;48.452;9.216;2022-11-21T11:47:59;9.00;99.90
8408;DHT22;4241;48.452;9.216;2022-11-21T11:50:29;9.20;99.90
8408;DHT22;4241;48.452;9.216;2022-11-21T11:53:03;9.30;99.90
8408;DHT22;4241;48.452;9.216;2022-11-21T11:55:35;9.00;99.90
8408;DHT22;4241;48.452;9.216;2022-11-21T11:58:06;8.90;99.90
8408;DHT22;4241;48.452;9.216;2022-11-21T12:00:43;8.80;99.90
8408;DHT22;4241;48.452;9.216;2022-11-21T12:03:15;8.80;99.90
8408;DHT22;4241;48.452;9.216;2022-11-21T12:05:53;8.70;99.90
8408;DHT22;4241;48.452;9.216;2022-11-21T12:08:27;8.60;99.90
8408;DHT22;4241;48.452;9.216;2022-11-21T12:10:59;8.60;99.90
8408;DHT22;4241;48.452;9.216;2022-11-21T12:13:50;8.70;99.90
8408;DHT22;4241;48.452;9.216;2022-11-21T12:16:24;8.70;99.90
8408;DHT22;4241;48.452;9.216;2022-11-21T12:18:55;8.50;99.90
8408;DHT22;4241;48.452;9.216;2022-11-21T12:21:25;8.40;99.90
8408;DHT22;4241;48.452;9.216;2022-11-21T12:23:54;8.30;99.90
8408;DHT22;4241;48.452;9.216;2022-11-21T12:26:44;8.30;99.90
8408;DHT22;4241;48.452;9.216;2022-11-21T12:29:23;8.30;99.90
8408;DHT22;4241;48.452;9.216;2022-11-21T12:32:12;8.30;99.90
8408;DHT22;4241;48.452;9.216;2022-11-21T12:34:57;8.30;99.90
8408;DHT22;4241;48.452;9.216;2022-11-21T12:37:37;8.30;99.90
8408;DHT22;4241;48.452;9.216;2022-11-21T12:40:15;8.40;99.90
8408;DHT22;4241;48.452;9.216;2022-11-21T12:42:53;8.40;99.90
8408;DHT22;4241;48.452;9.216;2022-11-21T12:45:29;8.30;99.90
8408;DHT22;4241;48.452;9.216;2022-11-21T12:48:25;8.50;99.90
8408;DHT22;4241;48.452;9.216;2022-11-21T12:51:32;8.50;99.90
8408;DHT22;4241;48.452;9.216;2022-11-21T12:54:48;8.30;99.90
8408;DHT22;4241;48.452;9.216;2022-11-21T12:57:19;8.60;99.90
8408;DHT22;4241;48.452;9.216;2022-11-21T12:59:54;8.60;99.90
8408;DHT22;4241;48.452;9.216;2022-11-21T13:02:49;8.60;99.90
8408;DHT22;4241;48.452;9.216;2022-11-21T13:05:28;8.60;99.90
8408;DHT22;4241;48.452;9.216;2022-11-21T13:08:00;8.50;99.90
8408;DHT22;4241;48.452;9.216;2022-11-21T13:10:28;8.50;99.90
8408;DHT22;4241;48.452;9.216;2022-11-21T13:12:59;8.50;99.90
8408;DHT22;4241;48.452;9.216;2022-11-21T13:15:32;8.50;99.90
8408;DHT22;4241;48.452;9.216;2022-11-21T13:18:04;8.60;99.90
8408;DHT22;4241;48.452;9.216;2022-11-21T13:20:46;8.60;99.90
8408;DHT22;4241;48.452;9.216;2022-11-21T13:23:35;8.30;99.90
8408;DHT22;4241;48.452;9.216;2022-11-21T13:26:16;8.40;99.90
8408;DHT22;4241;48.452;9.216;2022-11-21T13:29:07;8.50;99.90
8408;DHT22;4241;48.452;9.216;2022-11-21T13:31:34;8.60;99.90
8408;DHT22;4241;48.452;9.216;2022-11-21T13:34:02;8.60;99.90
8408;DHT22;4241;48.452;9.216;2022-11-21T13:36:40;8.70;99.90
8408;DHT22;4241;48.452;9.216;2022-11-21T13:39:26;8.70;99.90
8408;DHT22;4241;48.452;9.216;2022-11-21T13:42:15;8.60;99.90
8408;DHT22;4241;48.452;9.216;2022-11-21T13:45:36;8.70;99.90
8408;DHT22;4241;48.452;9.216;2022-11-21T13:48:37;8.60;99.90
8408;DHT22;4241;48.452;9.216;2022-11-21T13:51:33;8.50;99.90
8408;DHT22;4241;48.452;9.216;2022-11-21T13:54:25;8.50;99.90
8408;DHT22;4241;48.452;9.216;2022-11-21T13:57:04;8.50;99.90
8408;DHT22;4241;48.452;9.216;2022-11-21T13:59:47;8.50;99.90
8408;DHT22;4241;48.452;9.216;2022-11-21T14:02:42;8.40;99.90
8408;DHT22;4241;48.452;9.216;2022-11-21T14:05:41;8.40;99.90
8408;DHT22;4241;48.452;9.216;2022-11-21T14:08:13;8.40;99.90
8408;DHT22;4241;48.452;9.216;2022-11-21T14:10:44;8.40;99.90
8408;DHT22;4241;48.452;9.216;2022-11-21T14:13:19;8.40;99.90
8408;DHT22;4241;48.452;9.216;2022-11-21T14:15:57;8.30;99.90
8408;DHT22;4241;48.452;9.216;2022-11-21T14:18:29;8.30;99.90
8408;DHT22;4241;48.452;9.216;2022-11-21T14:20:58;8.30;99.90
8408;DHT22;4241;48.452;9.216;2022-11-21T14:23:27;8.40;99.90
8408;DHT22;4241;48.452;9.216;2022-11-21T14:25:59;8.40;99.90
8408;DHT22;4241;48.452;9.216;2022-11-21T14:28:29;8.40;99.90
8408;DHT22;4241;48.452;9.216;2022-11-21T14:30:57;8.40;99.90
8408;DHT22;4241;48.452;9.216;2022-11-21T14:33:31;8.30;99.90
8408;DHT22;4241;48.452;9.216;2022-11-21T14:36:01;8.40;99.90
8408;DHT22;4241;48.452;9.216;2022-11-21T14:38:31;8.30;99.90
8408;DHT22;4241;48.452;9.216;2022-11-21T14:41:31;8.30;99.90
8408;DHT22;4241;48.452;9.216;2022-11-21T14:44:13;8.30;99.90
8408;DHT22;4241;48.452;9.216;2022-11-21T14:46:41;8.20;99.90
8408;DHT22;4241;48.452;9.216;2022-11-21T14:49:23;8.20;99.90
8408;DHT22;4241;48.452;9.216;2022-11-21T14:51:52;8.10;99.90
8408;DHT22;4241;48.452;9.216;2022-11-21T14:59:38;7.80;99.90
8408;DHT22;4241;48.452;9.216;2022-11-21T15:06:17;7.60;99.90
8408;DHT22;4241;48.452;9.216;2022-11-21T15:08:44;7.50;99.90
8408;DHT22;4241;48.452;9.216;2022-11-21T15:11:11;7.30;99.90
8408;DHT22;4241;48.452;9.216;2022-11-21T15:13:39;7.30;99.90
8408;DHT22;4241;48.452;9.216;2022-11-21T15:16:06;7.30;99.90
8408;DHT22;4241;48.452;9.216;2022-11-21T15:18:33;7.40;99.90
8408;DHT22;4241;48.452;9.216;2022-11-21T15:21:03;7.30;99.90
8408;DHT22;4241;48.452;9.216;2022-11-21T15:23:33;7.30;99.90
8408;DHT22;4241;48.452;9.216;2022-11-21T15:26:01;7.20;99.90
8408;DHT22;4241;48.452;9.216;2022-11-21T15:28:28;7.30;99.90
8408;DHT22;4241;48.452;9.216;2022-11-21T15:31:15;7.30;99.90
8408;DHT22;4241;48.452;9.216;2022-11-21T15:33:56;7.20;99.90
8408;DHT22;4241;48.452;9.216;2022-11-21T15:36:24;7.20;99.90
8408;DHT22;4241;48.452;9.216;2022-11-21T15:38:54;7.20;99.90
8408;DHT22;4241;48.452;9.216;2022-11-21T15:41:32;7.20;99.90
8408;DHT22;4241;48.452;9.216;2022-11-21T15:44:21;7.20;99.90
8408;DHT22;4241;48.452;9.216;2022-11-21T15:46:50;7.10;99.90
8408;DHT22;4241;48.452;9.216;2022-11-21T15:49:17;6.80;99.90
8408;DHT22;4241;48.452;9.216;2022-11-21T15:51:45;6.90;99.90
8408;DHT22;4241;48.452;9.216;2022-11-21T15:54:15;6.90;99.90
8408;DHT22;4241;48.452;9.216;2022-11-21T15:56:42;6.80;99.90
8408;DHT22;4241;48.452;9.216;2022-11-21T16:01:36;6.70;99.90
8408;DHT22;4241;48.452;9.216;2022-11-21T16:04:05;6.80;99.90
8408;DHT22;4241;48.452;9.216;2022-11-21T16:06:32;6.80;99.90
8408;DHT22;4241;48.452;9.216;2022-11-21T16:08:59;6.70;99.90
8408;DHT22;4241;48.452;9.216;2022-11-21T16:11:29;6.70;99.90
8408;DHT22;4241;48.452;9.216;2022-11-21T16:13:57;6.60;99.90
8408;DHT22;4241;48.452;9.216;2022-11-21T16:16:25;6.60;99.90
8408;DHT22;4241;48.452;9.216;2022-11-21T16:21:20;6.70;99.90
8408;DHT22;4241;48.452;9.216;2022-11-21T16:23:46;6.60;99.90
8408;DHT22;4241;48.452;9.216;2022-11-21T16:26:13;6.60;99.90
8408;DHT22;4241;48.452;9.216;2022-11-21T16:28:42;6.50;99.90
8408;DHT22;4241;48.452;9.216;2022-11-21T16:31:17;6.60;99.90
8408;DHT22;4241;48.452;9.216;2022-11-21T16:33:44;6.50;99.90
8408;DHT22;4241;48.452;9.216;2022-11-21T16:36:11;6.50;99.90
8408;DHT22;4241;48.452;9.216;2022-11-21T16:38:41;6.40;99.90
8408;DHT22;4241;48.452;9.216;2022-11-21T16:46:07;6.90;99.90
8408;DHT22;4241;48.452;9.216;2022-11-21T16:51:08;6.30;99.90
8408;DHT22;4241;48.452;9.216;2022-11-21T16:58:30;6.20;99.90
8408;DHT22;4241;48.452;9.216;2022-11-21T17:03:25;6.30;99.90
8408;DHT22;4241;48.452;9.216;2022-11-21T17:05:56;6.30;99.90
8408;DHT22;4241;48.452;9.216;2022-11-21T17:15:44;6.20;99.90
8408;DHT22;4241;48.452;9.216;2022-11-21T17:20:40;6.10;99.90
8408;DHT22;4241;48.452;9.216;2022-11-21T17:28:01;6.10;99.90
8408;DHT22;4241;48.452;9.216;2022-11-21T17:32:56;6.10;99.90
8408;DHT22;4241;48.452;9.216;2022-11-21T17:35:22;6.00;99.90
8408;DHT22;4241;48.452;9.216;2022-11-21T17:37:50;6.00;99.90
8408;DHT22;4241;48.452;9.216;2022-11-21T17:40:17;5.90;99.90
8408;DHT22;4241;48.452;9.216;2022-11-21T17:45:11;6.00;99.90
8408;DHT22;4241;48.452;9.216;2022-11-21T17:47:38;5.90;99.90
8408;DHT22;4241;48.452;9.216;2022-11-21T17:50:07;6.00;99.90
8408;DHT22;4241;48.452;9.216;2022-11-21T17:55:03;6.10;99.90
8408;DHT22;4241;48.452;9.216;2022-11-21T17:59:57;6.00;99.90
8408;DHT22;4241;48.452;9.216;2022-11-21T18:04:51;6.10;99.90
8408;DHT22;4241;48.452;9.216;2022-11-21T18:07:18;6.20;99.90
8408;DHT22;4241;48.452;9.216;2022-11-21T18:09:45;6.10;99.90
8408;DHT22;4241;48.452;9.216;2022-11-21T18:12:13;6.10;99.90
8408;DHT22;4241;48.452;9.216;2022-11-21T18:14:40;6.30;99.90
8408;DHT22;4241;48.452;9.216;2022-11-21T18:17:07;6.20;99.90
8408;DHT22;4241;48.452;9.216;2022-11-21T18:19:34;6.20;99.90
8408;DHT22;4241;48.452;9.216;2022-11-21T18:22:01;6.00;99.90
8408;DHT22;4241;48.452;9.216;2022-11-21T18:26:55;6.10;99.90
8408;DHT22;4241;48.452;9.216;2022-11-21T18:29:23;6.20;99.90
8408;DHT22;4241;48.452;9.216;2022-11-21T18:31:52;6.20;99.90
8408;DHT22;4241;48.452;9.216;2022-11-21T18:34:19;6.20;99.90
8408;DHT22;4241;48.452;9.216;2022-11-21T18:36:45;6.30;99.90
8408;DHT22;4241;48.452;9.216;2022-11-21T18:41:40;6.30;99.90
8408;DHT22;4241;48.452;9.216;2022-11-21T18:44:07;6.30;99.90
8408;DHT22;4241;48.452;9.216;2022-11-21T18:46:36;6.30;99.90
8408;DHT22;4241;48.452;9.216;2022-11-21T18:53:59;6.30;99.90
8408;DHT22;4241;48.452;9.216;2022-11-21T18:56:27;6.20;99.90
8408;DHT22;4241;48.452;9.216;2022-11-21T18:58:54;6.40;99.90
8408;DHT22;4241;48.452;9.216;2022-11-21T19:01:23;6.50;99.90
8408;DHT22;4241;48.452;9.216;2022-11-21T19:03:52;6.50;99.90
8408;DHT22;4241;48.452;9.216;2022-11-21T19:06:20;6.60;99.90
8408;DHT22;4241;48.452;9.216;2022-11-21T19:08:48;6.40;99.90
8408;DHT22;4241;48.452;9.216;2022-11-21T19:11:17;6.40;99.90
8408;DHT22;4241;48.452;9.216;2022-11-21T19:13:45;6.40;99.90
8408;DHT22;4241;48.452;9.216;2022-11-21T19:16:13;6.50;99.90
8408;DHT22;4241;48.452;9.216;2022-11-21T19:18:41;6.60;99.90
8408;DHT22;4241;48.452;9.216;2022-11-21T19:21:11;6.50;99.90
8408;DHT22;4241;48.452;9.216;2022-11-21T19:23:39;6.60;99.90
8408;DHT22;4241;48.452;9.216;2022-11-21T19:26:08;6.50;99.90
8408;DHT22;4241;48.452;9.216;2022-11-21T19:28:36;6.40;99.90
8408;DHT22;4241;48.452;9.216;2022-11-21T19:31:04;6.50;99.90
8408;DHT22;4241;48.452;9.216;2022-11-21T19:33:32;6.50;99.90
8408;DHT22;4241;48.452;9.216;2022-11-21T19:35:59;6.40;99.90
8408;DHT22;4241;48.452;9.216;2022-11-21T19:38:28;6.40;99.90
8408;DHT22;4241;48.452;9.216;2022-11-21T19:40:59;6.50;99.90
8408;DHT22;4241;48.452;9.216;2022-11-21T19:43:42;6.50;99.90
8408;DHT22;4241;48.452;9.216;2022-11-21T19:46:11;6.50;99.90
8408;DHT22;4241;48.452;9.216;2022-11-21T19:53:35;6.60;99.90
8408;DHT22;4241;48.452;9.216;2022-11-21T19:56:13;6.60;99.90
8408;DHT22;4241;48.452;9.216;2022-11-21T19:58:41;6.60;99.90
8408;DHT22;4241;48.452;9.216;2022-11-21T20:01:10;6.60;99.90
8408;DHT22;4241;48.452;9.216;2022-11-21T20:03:40;6.70;99.90
8408;DHT22;4241;48.452;9.216;2022-11-21T20:06:09;6.70;99.90
8408;DHT22;4241;48.452;9.216;2022-11-21T20:08:41;6.70;99.90
8408;DHT22;4241;48.452;9.216;2022-11-21T20:11:10;6.70;99.90
8408;DHT22;4241;48.452;9.216;2022-11-21T20:13:38;6.80;99.90
8408;DHT22;4241;48.452;9.216;2022-11-21T20:18:34;6.60;99.90
8408;DHT22;4241;48.452;9.216;2022-11-21T20:21:07;6.60;99.90
8408;DHT22;4241;48.452;9.216;2022-11-21T20:23:34;6.70;99.90